sensor_id;sensor_type;location;lat;lon;timestamp;pressure;altitude;pressure_sealevel;temperature;humidity
23635;BME280;11994;51.038;16.974;2023-01-28T00:00:05;100867.68;;;2.08;96.26
23635;BME280;11994;51.038;16.974;2023-01-28T00:02:32;100869.46;;;2.11;96.13
23635;BME280;11994;51.038;16.974;2023-01-28T00:04:58;100871.67;;;2.10;96.01
23635;BME280;11994;51.038;16.974;2023-01-28T00:07:23;100875.26;;;2.08;95.92
23635;BME280;11994;51.038;16.974;2023-01-28T00:09:49;100877.46;;;2.06;95.91
23635;BME280;11994;51.038;16.974;2023-01-28T00:12:14;100875.90;;;2.05;95.82
23635;BME280;11994;51.038;16.974;2023-01-28T00:14:40;100873.27;;;2.04;95.81
23635;BME280;11994;51.038;16.974;2023-01-28T00:17:05;100871.88;;;2.03;95.85
23635;BME280;11994;51.038;16.974;2023-01-28T00:19:30;100873.92;;;2.02;95.72
23635;BME280;11994;51.038;16.974;2023-01-28T00:21:56;100870.77;;;2.00;95.97
23635;BME280;11994;51.038;16.974;2023-01-28T00:24:21;100873.98;;;1.96;95.81
23635;BME280;11994;51.038;16.974;2023-01-28T00:26:47;100867.22;;;1.96;95.91
23635;BME280;11994;51.038;16.974;2023-01-28T00:29:12;100872.23;;;1.96;95.88
23635;BME280;11994;51.038;16.974;2023-01-28T00:31:37;100865.66;;;1.95;96.02
23635;BME280;11994;51.038;16.974;2023-01-28T00:34:05;100862.90;;;1.95;96.12
23635;BME280;11994;51.038;16.974;2023-01-28T00:36:30;100860.32;;;1.95;96.12
23635;BME280;11994;51.038;16.974;2023-01-28T00:38:57;100861.84;;;1.93;96.20
23635;BME280;11994;51.038;16.974;2023-01-28T00:41:26;100862.14;;;1.92;96.18
23635;BME280;11994;51.038;16.974;2023-01-28T00:43:52;100861.95;;;1.91;96.15
23635;BME280;11994;51.038;16.974;2023-01-28T00:46:18;100862.43;;;1.89;96.28
23635;BME280;11994;51.038;16.974;2023-01-28T00:48:44;100863.18;;;1.93;96.43
23635;BME280;11994;51.038;16.974;2023-01-28T00:51:12;100860.60;;;1.93;96.40
23635;BME280;11994;51.038;16.974;2023-01-28T00:53:38;100862.11;;;1.91;96.36
23635;BME280;11994;51.038;16.974;2023-01-28T00:56:06;100862.53;;;1.94;96.54
23635;BME280;11994;51.038;16.974;2023-01-28T00:58:32;100857.57;;;1.96;96.49
23635;BME280;11994;51.038;16.974;2023-01-28T01:01:18;100859.55;;;1.99;96.78
23635;BME280;11994;51.038;16.974;2023-01-28T01:03:43;100859.02;;;2.00;96.70
23635;BME280;11994;51.038;16.974;2023-01-28T01:06:11;100854.38;;;2.00;96.85
23635;BME280;11994;51.038;16.974;2023-01-28T01:08:36;100852.63;;;1.99;96.74
23635;BME280;11994;51.038;16.974;2023-01-28T01:11:08;100854.40;;;2.01;96.68
23635;BME280;11994;51.038;16.974;2023-01-28T01:13:34;100854.39;;;2.00;96.67
23635;BME280;11994;51.038;16.974;2023-01-28T01:16:08;100858.66;;;1.98;96.59
23635;BME280;11994;51.038;16.974;2023-01-28T01:18:34;100865.15;;;1.96;96.51
23635;BME280;11994;51.038;16.974;2023-01-28T01:21:01;100871.90;;;1.96;96.79
23635;BME280;11994;51.038;16.974;2023-01-28T01:23:28;100870.47;;;1.94;96.79
23635;BME280;11994;51.038;16.974;2023-01-28T01:25:54;100877.23;;;1.96;96.84
23635;BME280;11994;51.038;16.974;2023-01-28T01:28:20;100876.04;;;1.96;96.62
23635;BME280;11994;51.038;16.974;2023-01-28T01:30:47;100877.60;;;1.97;96.74
23635;BME280;11994;51.038;16.974;2023-01-28T01:33:13;100874.48;;;1.96;96.78
23635;BME280;11994;51.038;16.974;2023-01-28T01:35:38;100877.58;;;1.96;96.78
23635;BME280;11994;51.038;16.974;2023-01-28T01:38:04;100878.46;;;1.97;96.83
23635;BME280;11994;51.038;16.974;2023-01-28T01:40:30;100879.67;;;1.97;96.77
23635;BME280;11994;51.038;16.974;2023-01-28T01:42:55;100884.20;;;1.99;96.60
23635;BME280;11994;51.038;16.974;2023-01-28T01:45:20;100888.67;;;1.99;96.44
23635;BME280;11994;51.038;16.974;2023-01-28T01:48:00;100890.05;;;1.99;96.45
23635;BME280;11994;51.038;16.974;2023-01-28T01:50:41;100893.69;;;1.99;96.48
23635;BME280;11994;51.038;16.974;2023-01-28T01:53:13;100899.49;;;1.96;96.46
23635;BME280;11994;51.038;16.974;2023-01-28T01:55:42;100899.11;;;1.94;96.36
23635;BME280;11994;51.038;16.974;2023-01-28T01:58:12;100904.13;;;1.96;96.47
23635;BME280;11994;51.038;16.974;2023-01-28T02:00:41;100903.11;;;1.97;96.37
23635;BME280;11994;51.038;16.974;2023-01-28T02:03:08;100901.69;;;1.94;96.25
23635;BME280;11994;51.038;16.974;2023-01-28T02:05:34;100902.42;;;1.89;96.28
23635;BME280;11994;51.038;16.974;2023-01-28T02:08:00;100909.41;;;1.85;96.25
23635;BME280;11994;51.038;16.974;2023-01-28T02:10:46;100908.20;;;1.78;96.48
23635;BME280;11994;51.038;16.974;2023-01-28T02:13:14;100909.98;;;1.73;96.33
23635;BME280;11994;51.038;16.974;2023-01-28T02:15:41;100906.70;;;1.72;96.32
23635;BME280;11994;51.038;16.974;2023-01-28T02:18:06;100911.01;;;1.72;96.52
23635;BME280;11994;51.038;16.974;2023-01-28T02:23:32;100913.67;;;1.68;96.89
23635;BME280;11994;51.038;16.974;2023-01-28T02:28:59;100917.67;;;1.63;96.76
23635;BME280;11994;51.038;16.974;2023-01-28T02:31:35;100918.96;;;1.66;96.79
23635;BME280;11994;51.038;16.974;2023-01-28T02:34:05;100915.53;;;1.67;96.98
23635;BME280;11994;51.038;16.974;2023-01-28T02:36:41;100916.45;;;1.69;96.81
23635;BME280;11994;51.038;16.974;2023-01-28T02:39:22;100909.38;;;1.69;96.85
23635;BME280;11994;51.038;16.974;2023-01-28T02:41:52;100919.67;;;1.67;96.78
23635;BME280;11994;51.038;16.974;2023-01-28T02:44:20;100918.38;;;1.63;96.57
23635;BME280;11994;51.038;16.974;2023-01-28T02:46:46;100921.41;;;1.61;96.59
23635;BME280;11994;51.038;16.974;2023-01-28T02:49:39;100916.13;;;1.56;96.49
23635;BME280;11994;51.038;16.974;2023-01-28T03:00:49;100916.57;;;1.38;96.65
23635;BME280;11994;51.038;16.974;2023-01-28T03:04:13;100915.36;;;1.39;96.94
23635;BME280;11994;51.038;16.974;2023-01-28T03:06:10;100918.39;;;1.43;97.03
23635;BME280;11994;51.038;16.974;2023-01-28T03:08:44;100920.75;;;1.41;97.13
23635;BME280;11994;51.038;16.974;2023-01-28T03:11:31;100916.79;;;1.41;97.19
23635;BME280;11994;51.038;16.974;2023-01-28T03:14:18;100921.40;;;1.39;97.26
23635;BME280;11994;51.038;16.974;2023-01-28T03:17:04;100922.77;;;1.38;97.03
23635;BME280;11994;51.038;16.974;2023-01-28T03:19:50;100925.33;;;1.37;96.85
23635;BME280;11994;51.038;16.974;2023-01-28T03:22:37;100924.97;;;1.37;97.16
23635;BME280;11994;51.038;16.974;2023-01-28T03:25:24;100923.44;;;1.37;97.13
23635;BME280;11994;51.038;16.974;2023-01-28T03:28:12;100923.27;;;1.37;97.11
23635;BME280;11994;51.038;16.974;2023-01-28T03:31:07;100922.33;;;1.35;97.15
23635;BME280;11994;51.038;16.974;2023-01-28T03:33:54;100922.56;;;1.37;97.21
23635;BME280;11994;51.038;16.974;2023-01-28T03:36:39;100921.55;;;1.38;97.13
23635;BME280;11994;51.038;16.974;2023-01-28T03:39:19;100922.16;;;1.36;97.12
23635;BME280;11994;51.038;16.974;2023-01-28T03:41:56;100920.91;;;1.33;97.18
23635;BME280;11994;51.038;16.974;2023-01-28T03:44:23;100926.37;;;1.31;97.20
23635;BME280;11994;51.038;16.974;2023-01-28T03:47:08;100920.10;;;1.28;97.17
23635;BME280;11994;51.038;16.974;2023-01-28T03:49:37;100923.90;;;1.29;97.23
23635;BME280;11994;51.038;16.974;2023-01-28T03:52:03;100925.57;;;1.27;96.90
23635;BME280;11994;51.038;16.974;2023-01-28T03:54:28;100927.06;;;1.25;97.09
23635;BME280;11994;51.038;16.974;2023-01-28T03:56:53;100931.90;;;1.25;97.30
23635;BME280;11994;51.038;16.974;2023-01-28T03:59:19;100926.52;;;1.24;97.36
23635;BME280;11994;51.038;16.974;2023-01-28T04:01:44;100931.61;;;1.20;97.25
23635;BME280;11994;51.038;16.974;2023-01-28T04:04:10;100929.98;;;1.19;97.13
23635;BME280;11994;51.038;16.974;2023-01-28T04:06:47;100934.29;;;1.18;97.15
23635;BME280;11994;51.038;16.974;2023-01-28T04:09:12;100937.05;;;1.18;97.34
23635;BME280;11994;51.038;16.974;2023-01-28T04:11:38;100939.59;;;1.16;97.24
23635;BME280;11994;51.038;16.974;2023-01-28T04:14:03;100937.85;;;1.15;97.32
23635;BME280;11994;51.038;16.974;2023-01-28T04:16:29;100935.95;;;1.15;97.33
23635;BME280;11994;51.038;16.974;2023-01-28T04:18:54;100940.27;;;1.16;97.39
23635;BME280;11994;51.038;16.974;2023-01-28T04:21:20;100938.56;;;1.16;97.29
23635;BME280;11994;51.038;16.974;2023-01-28T04:23:45;100942.90;;;1.18;97.47
23635;BME280;11994;51.038;16.974;2023-01-28T04:26:10;100944.74;;;1.16;97.34
23635;BME280;11994;51.038;16.974;2023-01-28T04:28:36;100945.92;;;1.14;97.45
23635;BME280;11994;51.038;16.974;2023-01-28T04:31:01;100947.08;;;1.13;97.52
23635;BME280;11994;51.038;16.974;2023-01-28T04:33:27;100947.34;;;1.10;97.30
23635;BME280;11994;51.038;16.974;2023-01-28T04:35:52;100951.69;;;1.11;97.27
23635;BME280;11994;51.038;16.974;2023-01-28T04:38:17;100952.48;;;1.09;97.37
23635;BME280;11994;51.038;16.974;2023-01-28T04:40:43;100950.34;;;1.06;97.36
23635;BME280;11994;51.038;16.974;2023-01-28T04:43:08;100954.22;;;1.03;97.44
23635;BME280;11994;51.038;16.974;2023-01-28T04:45:33;100957.64;;;1.02;97.45
23635;BME280;11994;51.038;16.974;2023-01-28T04:47:59;100961.72;;;1.07;97.73
23635;BME280;11994;51.038;16.974;2023-01-28T04:50:24;100963.93;;;1.12;97.85
23635;BME280;11994;51.038;16.974;2023-01-28T04:52:50;100965.57;;;1.15;97.54
23635;BME280;11994;51.038;16.974;2023-01-28T04:55:15;100962.21;;;1.12;97.55
23635;BME280;11994;51.038;16.974;2023-01-28T04:57:40;100967.98;;;1.08;97.46
23635;BME280;11994;51.038;16.974;2023-01-28T05:00:06;100968.73;;;1.05;97.48
23635;BME280;11994;51.038;16.974;2023-01-28T05:02:32;100967.66;;;1.03;97.47
23635;BME280;11994;51.038;16.974;2023-01-28T05:04:57;100974.69;;;1.02;97.27
23635;BME280;11994;51.038;16.974;2023-01-28T05:07:23;100972.20;;;1.00;97.51
23635;BME280;11994;51.038;16.974;2023-01-28T05:09:48;100977.72;;;1.00;97.41
23635;BME280;11994;51.038;16.974;2023-01-28T05:12:13;100974.58;;;0.98;97.47
23635;BME280;11994;51.038;16.974;2023-01-28T05:14:39;100975.48;;;0.93;97.61
23635;BME280;11994;51.038;16.974;2023-01-28T05:17:04;100979.25;;;0.93;97.55
23635;BME280;11994;51.038;16.974;2023-01-28T05:19:29;100979.96;;;0.94;97.53
23635;BME280;11994;51.038;16.974;2023-01-28T05:21:55;100980.87;;;0.96;97.65
23635;BME280;11994;51.038;16.974;2023-01-28T05:24:20;100982.02;;;0.93;97.62
23635;BME280;11994;51.038;16.974;2023-01-28T05:26:46;100985.88;;;0.90;97.41
23635;BME280;11994;51.038;16.974;2023-01-28T05:29:11;100989.92;;;0.87;97.62
23635;BME280;11994;51.038;16.974;2023-01-28T05:31:36;100988.83;;;0.85;97.61
23635;BME280;11994;51.038;16.974;2023-01-28T05:34:02;100996.63;;;0.86;97.73
23635;BME280;11994;51.038;16.974;2023-01-28T05:36:27;100999.13;;;0.83;97.44
23635;BME280;11994;51.038;16.974;2023-01-28T05:38:52;101001.17;;;0.83;97.57
23635;BME280;11994;51.038;16.974;2023-01-28T05:41:18;101003.30;;;0.79;97.56
23635;BME280;11994;51.038;16.974;2023-01-28T05:43:43;101004.30;;;0.78;97.70
23635;BME280;11994;51.038;16.974;2023-01-28T05:46:08;101003.92;;;0.77;97.81
23635;BME280;11994;51.038;16.974;2023-01-28T05:48:34;101003.10;;;0.78;97.57
23635;BME280;11994;51.038;16.974;2023-01-28T05:50:59;101001.89;;;0.78;97.49
23635;BME280;11994;51.038;16.974;2023-01-28T05:53:24;101000.30;;;0.77;97.41
23635;BME280;11994;51.038;16.974;2023-01-28T05:55:51;101005.46;;;0.76;97.67
23635;BME280;11994;51.038;16.974;2023-01-28T05:58:18;101005.29;;;0.76;97.56
23635;BME280;11994;51.038;16.974;2023-01-28T06:00:44;101005.42;;;0.75;97.70
23635;BME280;11994;51.038;16.974;2023-01-28T06:03:09;101009.66;;;0.73;97.43
23635;BME280;11994;51.038;16.974;2023-01-28T06:05:35;101005.88;;;0.73;97.34
23635;BME280;11994;51.038;16.974;2023-01-28T06:08:00;101005.52;;;0.72;97.42
23635;BME280;11994;51.038;16.974;2023-01-28T06:10:26;101009.10;;;0.71;97.52
23635;BME280;11994;51.038;16.974;2023-01-28T06:12:51;101012.36;;;0.71;97.54
23635;BME280;11994;51.038;16.974;2023-01-28T06:15:16;101013.04;;;0.71;97.53
23635;BME280;11994;51.038;16.974;2023-01-28T06:17:42;101016.83;;;0.71;97.37
23635;BME280;11994;51.038;16.974;2023-01-28T06:20:08;101020.33;;;0.73;97.30
23635;BME280;11994;51.038;16.974;2023-01-28T06:22:34;101020.34;;;0.73;97.43
23635;BME280;11994;51.038;16.974;2023-01-28T06:25:00;101021.80;;;0.70;97.33
23635;BME280;11994;51.038;16.974;2023-01-28T06:27:25;101024.51;;;0.68;97.30
23635;BME280;11994;51.038;16.974;2023-01-28T06:29:51;101022.54;;;0.66;97.40
23635;BME280;11994;51.038;16.974;2023-01-28T06:32:17;101021.74;;;0.68;97.45
23635;BME280;11994;51.038;16.974;2023-01-28T06:34:42;101027.30;;;0.69;97.33
23635;BME280;11994;51.038;16.974;2023-01-28T06:37:08;101027.48;;;0.70;97.28
23635;BME280;11994;51.038;16.974;2023-01-28T06:39:33;101027.64;;;0.69;97.44
23635;BME280;11994;51.038;16.974;2023-01-28T06:41:59;101030.06;;;0.70;97.36
23635;BME280;11994;51.038;16.974;2023-01-28T06:44:24;101030.05;;;0.69;97.22
23635;BME280;11994;51.038;16.974;2023-01-28T06:46:49;101035.39;;;0.69;97.20
23635;BME280;11994;51.038;16.974;2023-01-28T06:49:15;101036.33;;;0.72;97.26
23635;BME280;11994;51.038;16.974;2023-01-28T06:51:40;101040.89;;;0.75;97.36
23635;BME280;11994;51.038;16.974;2023-01-28T06:54:06;101045.76;;;0.77;97.31
23635;BME280;11994;51.038;16.974;2023-01-28T06:56:31;101047.69;;;0.79;97.24
23635;BME280;11994;51.038;16.974;2023-01-28T06:58:57;101051.63;;;0.78;97.25
23635;BME280;11994;51.038;16.974;2023-01-28T07:01:22;101055.94;;;0.78;97.16
23635;BME280;11994;51.038;16.974;2023-01-28T07:03:47;101056.25;;;0.77;97.04
23635;BME280;11994;51.038;16.974;2023-01-28T07:06:13;101058.46;;;0.76;96.91
23635;BME280;11994;51.038;16.974;2023-01-28T07:08:38;101064.27;;;0.74;96.87
23635;BME280;11994;51.038;16.974;2023-01-28T07:11:05;101064.55;;;0.73;96.92
23635;BME280;11994;51.038;16.974;2023-01-28T07:13:31;101068.65;;;0.71;96.87
23635;BME280;11994;51.038;16.974;2023-01-28T07:15:57;101070.45;;;0.68;96.87
23635;BME280;11994;51.038;16.974;2023-01-28T07:18:22;101078.51;;;0.67;96.79
23635;BME280;11994;51.038;16.974;2023-01-28T07:20:48;101084.38;;;0.68;96.81
23635;BME280;11994;51.038;16.974;2023-01-28T07:23:13;101085.56;;;0.67;96.78
23635;BME280;11994;51.038;16.974;2023-01-28T07:25:38;101082.77;;;0.66;96.66
23635;BME280;11994;51.038;16.974;2023-01-28T07:28:04;101085.84;;;0.65;96.77
23635;BME280;11994;51.038;16.974;2023-01-28T07:30:29;101088.22;;;0.63;96.68
23635;BME280;11994;51.038;16.974;2023-01-28T07:32:57;101090.52;;;0.65;96.73
23635;BME280;11994;51.038;16.974;2023-01-28T07:35:23;101090.80;;;0.70;96.81
23635;BME280;11994;51.038;16.974;2023-01-28T07:37:57;101093.63;;;0.71;96.72
23635;BME280;11994;51.038;16.974;2023-01-28T07:40:23;101086.98;;;0.74;96.83
23635;BME280;11994;51.038;16.974;2023-01-28T07:42:49;101088.91;;;0.76;96.81
23635;BME280;11994;51.038;16.974;2023-01-28T07:45:15;101091.57;;;0.72;96.72
23635;BME280;11994;51.038;16.974;2023-01-28T07:47:40;101087.36;;;0.70;96.53
23635;BME280;11994;51.038;16.974;2023-01-28T07:50:07;101085.42;;;0.68;96.52
23635;BME280;11994;51.038;16.974;2023-01-28T07:52:33;101087.61;;;0.67;96.68
23635;BME280;11994;51.038;16.974;2023-01-28T07:55:06;101086.75;;;0.67;96.73
23635;BME280;11994;51.038;16.974;2023-01-28T07:57:31;101086.42;;;0.67;96.78
23635;BME280;11994;51.038;16.974;2023-01-28T07:59:56;101083.60;;;0.65;96.88
23635;BME280;11994;51.038;16.974;2023-01-28T08:02:22;101086.90;;;0.66;96.73
23635;BME280;11994;51.038;16.974;2023-01-28T08:04:47;101093.70;;;0.69;96.62
23635;BME280;11994;51.038;16.974;2023-01-28T08:07:12;101094.22;;;0.69;96.89
23635;BME280;11994;51.038;16.974;2023-01-28T08:09:38;101097.25;;;0.67;96.55
23635;BME280;11994;51.038;16.974;2023-01-28T08:12:03;101095.05;;;0.62;96.58
23635;BME280;11994;51.038;16.974;2023-01-28T08:14:29;101096.05;;;0.61;96.69
23635;BME280;11994;51.038;16.974;2023-01-28T08:16:54;101095.39;;;0.62;96.76
23635;BME280;11994;51.038;16.974;2023-01-28T08:19:19;101095.77;;;0.63;96.65
23635;BME280;11994;51.038;16.974;2023-01-28T08:21:49;101104.71;;;0.63;96.61
23635;BME280;11994;51.038;16.974;2023-01-28T08:24:15;101106.25;;;0.62;96.69
23635;BME280;11994;51.038;16.974;2023-01-28T08:26:41;101104.66;;;0.62;96.74
23635;BME280;11994;51.038;16.974;2023-01-28T08:29:06;101107.79;;;0.62;96.72
23635;BME280;11994;51.038;16.974;2023-01-28T08:31:31;101107.41;;;0.61;96.67
23635;BME280;11994;51.038;16.974;2023-01-28T08:33:57;101107.45;;;0.63;96.80
23635;BME280;11994;51.038;16.974;2023-01-28T08:36:22;101110.75;;;0.63;96.66
23635;BME280;11994;51.038;16.974;2023-01-28T08:38:52;101109.29;;;0.61;96.79
23635;BME280;11994;51.038;16.974;2023-01-28T08:41:22;101108.23;;;0.60;96.85
23635;BME280;11994;51.038;16.974;2023-01-28T08:43:48;101108.54;;;0.59;96.88
23635;BME280;11994;51.038;16.974;2023-01-28T08:46:14;101106.64;;;0.58;96.65
23635;BME280;11994;51.038;16.974;2023-01-28T08:48:40;101108.87;;;0.58;96.73
23635;BME280;11994;51.038;16.974;2023-01-28T08:51:05;101107.05;;;0.61;96.80
23635;BME280;11994;51.038;16.974;2023-01-28T08:53:31;101108.34;;;0.63;96.86
23635;BME280;11994;51.038;16.974;2023-01-28T08:55:56;101108.88;;;0.64;96.74
23635;BME280;11994;51.038;16.974;2023-01-28T08:58:21;101109.01;;;0.62;96.79
23635;BME280;11994;51.038;16.974;2023-01-28T09:00:48;101109.88;;;0.63;96.79
23635;BME280;11994;51.038;16.974;2023-01-28T09:03:14;101111.63;;;0.64;96.60
23635;BME280;11994;51.038;16.974;2023-01-28T09:05:39;101115.71;;;0.63;96.51
23635;BME280;11994;51.038;16.974;2023-01-28T09:08:07;101115.48;;;0.61;96.73
23635;BME280;11994;51.038;16.974;2023-01-28T09:10:33;101112.18;;;0.60;96.71
23635;BME280;11994;51.038;16.974;2023-01-28T09:13:06;101108.23;;;0.60;96.88
23635;BME280;11994;51.038;16.974;2023-01-28T09:15:33;101111.80;;;0.58;96.52
23635;BME280;11994;51.038;16.974;2023-01-28T09:17:59;101115.39;;;0.58;96.55
23635;BME280;11994;51.038;16.974;2023-01-28T09:20:25;101120.52;;;0.57;96.65
23635;BME280;11994;51.038;16.974;2023-01-28T09:22:50;101124.05;;;0.55;96.45
23635;BME280;11994;51.038;16.974;2023-01-28T09:25:16;101122.63;;;0.53;96.60
23635;BME280;11994;51.038;16.974;2023-01-28T09:27:41;101129.59;;;0.50;96.63
23635;BME280;11994;51.038;16.974;2023-01-28T09:30:07;101129.91;;;0.49;96.57
23635;BME280;11994;51.038;16.974;2023-01-28T09:32:34;101130.52;;;0.52;96.63
23635;BME280;11994;51.038;16.974;2023-01-28T09:34:59;101130.75;;;0.54;96.73
23635;BME280;11994;51.038;16.974;2023-01-28T09:37:25;101135.34;;;0.52;96.65
23635;BME280;11994;51.038;16.974;2023-01-28T09:39:50;101137.73;;;0.51;96.65
23635;BME280;11994;51.038;16.974;2023-01-28T09:45:01;101142.10;;;0.54;96.81
23635;BME280;11994;51.038;16.974;2023-01-28T09:47:36;101140.10;;;0.55;96.56
23635;BME280;11994;51.038;16.974;2023-01-28T09:50:06;101139.64;;;0.57;96.67
23635;BME280;11994;51.038;16.974;2023-01-28T09:52:35;101141.20;;;0.57;96.63
23635;BME280;11994;51.038;16.974;2023-01-28T09:55:13;101135.73;;;0.59;96.62
23635;BME280;11994;51.038;16.974;2023-01-28T09:57:48;101138.35;;;0.61;96.48
23635;BME280;11994;51.038;16.974;2023-01-28T10:00:17;101139.42;;;0.61;96.52
23635;BME280;11994;51.038;16.974;2023-01-28T10:02:56;101141.02;;;0.63;96.46
23635;BME280;11994;51.038;16.974;2023-01-28T10:05:50;101138.25;;;0.62;96.46
23635;BME280;11994;51.038;16.974;2023-01-28T10:08:29;101141.11;;;0.66;96.55
23635;BME280;11994;51.038;16.974;2023-01-28T10:13:55;101150.34;;;0.58;96.39
23635;BME280;11994;51.038;16.974;2023-01-28T10:16:41;101148.06;;;0.52;96.15
23635;BME280;11994;51.038;16.974;2023-01-28T10:19:19;101145.92;;;0.50;96.17
23635;BME280;11994;51.038;16.974;2023-01-28T10:22:00;101142.69;;;0.51;96.16
23635;BME280;11994;51.038;16.974;2023-01-28T10:24:33;101140.04;;;0.54;96.41
23635;BME280;11994;51.038;16.974;2023-01-28T10:26:59;101133.34;;;0.54;96.41
23635;BME280;11994;51.038;16.974;2023-01-28T10:29:28;101143.86;;;0.55;96.56
23635;BME280;11994;51.038;16.974;2023-01-28T10:34:46;101135.80;;;0.56;96.44
23635;BME280;11994;51.038;16.974;2023-01-28T10:37:13;101136.11;;;0.55;96.20
23635;BME280;11994;51.038;16.974;2023-01-28T10:39:39;101143.59;;;0.57;96.39
23635;BME280;11994;51.038;16.974;2023-01-28T10:42:25;101141.23;;;0.59;96.55
23635;BME280;11994;51.038;16.974;2023-01-28T10:44:58;101136.36;;;0.57;96.44
23635;BME280;11994;51.038;16.974;2023-01-28T10:47:40;101140.40;;;0.54;96.35
23635;BME280;11994;51.038;16.974;2023-01-28T10:50:14;101144.60;;;0.51;96.12
23635;BME280;11994;51.038;16.974;2023-01-28T10:52:55;101139.38;;;0.50;95.84
23635;BME280;11994;51.038;16.974;2023-01-28T10:55:21;101145.69;;;0.53;96.29
23635;BME280;11994;51.038;16.974;2023-01-28T10:57:48;101144.10;;;0.57;96.23
23635;BME280;11994;51.038;16.974;2023-01-28T11:00:22;101144.06;;;0.56;96.02
23635;BME280;11994;51.038;16.974;2023-01-28T11:02:49;101144.83;;;0.53;95.86
23635;BME280;11994;51.038;16.974;2023-01-28T11:05:17;101146.40;;;0.48;95.76
23635;BME280;11994;51.038;16.974;2023-01-28T11:07:47;101148.27;;;0.47;95.73
23635;BME280;11994;51.038;16.974;2023-01-28T11:10:40;101146.91;;;0.48;95.89
23635;BME280;11994;51.038;16.974;2023-01-28T11:15:51;101147.45;;;0.55;95.86
23635;BME280;11994;51.038;16.974;2023-01-28T11:18:23;101147.74;;;0.58;95.94
23635;BME280;11994;51.038;16.974;2023-01-28T11:21:15;101147.17;;;0.56;95.78
23635;BME280;11994;51.038;16.974;2023-01-28T11:26:17;101142.09;;;0.59;95.73
23635;BME280;11994;51.038;16.974;2023-01-28T11:28:43;101139.86;;;0.59;95.40
23635;BME280;11994;51.038;16.974;2023-01-28T11:31:12;101137.57;;;0.57;95.38
23635;BME280;11994;51.038;16.974;2023-01-28T11:33:43;101128.98;;;0.57;95.37
23635;BME280;11994;51.038;16.974;2023-01-28T11:36:17;101130.86;;;0.57;95.36
23635;BME280;11994;51.038;16.974;2023-01-28T11:38:51;101138.74;;;0.51;94.93
23635;BME280;11994;51.038;16.974;2023-01-28T11:41:18;101140.27;;;0.51;95.09
23635;BME280;11994;51.038;16.974;2023-01-28T11:43:47;101133.71;;;0.55;95.34
23635;BME280;11994;51.038;16.974;2023-01-28T11:46:21;101137.34;;;0.61;95.36
23635;BME280;11994;51.038;16.974;2023-01-28T11:51:39;101144.41;;;0.62;94.90
23635;BME280;11994;51.038;16.974;2023-01-28T11:59:49;101144.84;;;0.53;94.68
23635;BME280;11994;51.038;16.974;2023-01-28T12:02:42;101144.23;;;0.56;94.59
23635;BME280;11994;51.038;16.974;2023-01-28T12:21:53;101134.68;;;0.53;93.24
23635;BME280;11994;51.038;16.974;2023-01-28T12:30:24;101139.84;;;0.53;92.72
23635;BME280;11994;51.038;16.974;2023-01-28T12:33:13;101135.78;;;0.50;92.73
23635;BME280;11994;51.038;16.974;2023-01-28T12:41:24;101131.92;;;0.47;92.08
23635;BME280;11994;51.038;16.974;2023-01-28T12:44:00;101133.85;;;0.49;92.25
23635;BME280;11994;51.038;16.974;2023-01-28T12:46:55;101135.86;;;0.52;92.33
23635;BME280;11994;51.038;16.974;2023-01-28T12:49:34;101133.89;;;0.55;92.17
23635;BME280;11994;51.038;16.974;2023-01-28T12:52:32;101140.51;;;0.52;92.08
23635;BME280;11994;51.038;16.974;2023-01-28T12:55:15;101143.30;;;0.54;92.34
23635;BME280;11994;51.038;16.974;2023-01-28T12:57:42;101149.33;;;0.54;91.80
23635;BME280;11994;51.038;16.974;2023-01-28T13:03:05;101142.54;;;0.57;91.96
23635;BME280;11994;51.038;16.974;2023-01-28T13:05:37;101150.82;;;0.57;92.03
23635;BME280;11994;51.038;16.974;2023-01-28T13:08:11;101149.58;;;0.56;91.93
23635;BME280;11994;51.038;16.974;2023-01-28T13:10:42;101155.30;;;0.52;91.37
23635;BME280;11994;51.038;16.974;2023-01-28T13:13:24;101153.34;;;0.45;90.88
23635;BME280;11994;51.038;16.974;2023-01-28T13:15:52;101157.27;;;0.39;90.85
23635;BME280;11994;51.038;16.974;2023-01-28T13:18:34;101152.61;;;0.39;90.89
23635;BME280;11994;51.038;16.974;2023-01-28T13:23:49;101148.70;;;0.39;90.61
23635;BME280;11994;51.038;16.974;2023-01-28T13:28:49;101150.80;;;0.36;90.52
23635;BME280;11994;51.038;16.974;2023-01-28T13:31:17;101153.92;;;0.36;90.62
23635;BME280;11994;51.038;16.974;2023-01-28T13:34:03;101150.98;;;0.36;90.45
23635;BME280;11994;51.038;16.974;2023-01-28T13:36:44;101150.27;;;0.35;90.52
23635;BME280;11994;51.038;16.974;2023-01-28T13:39:29;101155.85;;;0.38;90.28
23635;BME280;11994;51.038;16.974;2023-01-28T13:42:29;101154.48;;;0.37;90.11
23635;BME280;11994;51.038;16.974;2023-01-28T13:45:06;101156.20;;;0.38;90.18
23635;BME280;11994;51.038;16.974;2023-01-28T13:47:33;101159.35;;;0.39;90.55
23635;BME280;11994;51.038;16.974;2023-01-28T13:50:10;101162.38;;;0.42;90.35
23635;BME280;11994;51.038;16.974;2023-01-28T13:55:29;101158.13;;;0.38;89.95
23635;BME280;11994;51.038;16.974;2023-01-28T14:12:04;101179.39;;;0.42;89.36
23635;BME280;11994;51.038;16.974;2023-01-28T14:17:45;101181.47;;;0.42;89.26
23635;BME280;11994;51.038;16.974;2023-01-28T14:20:21;101186.34;;;0.39;88.72
23635;BME280;11994;51.038;16.974;2023-01-28T14:22:48;101187.20;;;0.39;88.65
23635;BME280;11994;51.038;16.974;2023-01-28T14:25:19;101191.66;;;0.44;88.61
23635;BME280;11994;51.038;16.974;2023-01-28T14:27:50;101194.74;;;0.44;88.39
23635;BME280;11994;51.038;16.974;2023-01-28T14:30:35;101196.54;;;0.40;88.05
23635;BME280;11994;51.038;16.974;2023-01-28T14:33:08;101191.34;;;0.38;88.21
23635;BME280;11994;51.038;16.974;2023-01-28T14:35:36;101192.73;;;0.40;88.12